sensor_id;sensor_type;location;lat;lon;timestamp;temperature;humidity
13835;DHT22;6988;52.614;13.500;2022-07-23T00:03:17;17.20;99.90
13835;DHT22;6988;52.614;13.500;2022-07-23T00:08:10;17.30;99.90
13835;DHT22;6988;52.614;13.500;2022-07-23T00:13:02;17.20;99.90
13835;DHT22;6988;52.614;13.500;2022-07-23T00:17:54;17.30;99.90
13835;DHT22;6988;52.614;13.500;2022-07-23T00:22:46;17.20;99.90
13835;DHT22;6988;52.614;13.500;2022-07-23T00:27:40;17.20;99.90
13835;DHT22;6988;52.614;13.500;2022-07-23T00:32:31;17.20;99.90
13835;DHT22;6988;52.614;13.500;2022-07-23T00:37:23;17.30;99.90
13835;DHT22;6988;52.614;13.500;2022-07-23T00:42:16;17.30;99.90
13835;DHT22;6988;52.614;13.500;2022-07-23T00:47:09;17.30;99.90
13835;DHT22;6988;52.614;13.500;2022-07-23T00:52:02;17.30;99.90
13835;DHT22;6988;52.614;13.500;2022-07-23T00:56:54;17.20;99.90
13835;DHT22;6988;52.614;13.500;2022-07-23T01:01:46;17.10;99.90
13835;DHT22;6988;52.614;13.500;2022-07-23T01:06:41;17.00;99.90
13835;DHT22;6988;52.614;13.500;2022-07-23T01:11:36;17.00;99.90
13835;DHT22;6988;52.614;13.500;2022-07-23T01:16:31;17.00;99.90
13835;DHT22;6988;52.614;13.500;2022-07-23T01:21:23;17.00;99.90
13835;DHT22;6988;52.614;13.500;2022-07-23T01:26:17;16.90;99.90
13835;DHT22;6988;52.614;13.500;2022-07-23T01:31:09;16.90;99.90
13835;DHT22;6988;52.614;13.500;2022-07-23T01:36:00;16.90;99.90
13835;DHT22;6988;52.614;13.500;2022-07-23T01:40:52;16.80;99.90
13835;DHT22;6988;52.614;13.500;2022-07-23T01:45:45;16.60;99.90
13835;DHT22;6988;52.614;13.500;2022-07-23T01:50:38;16.50;99.90
13835;DHT22;6988;52.614;13.500;2022-07-23T01:55:42;16.40;99.90
13835;DHT22;6988;52.614;13.500;2022-07-23T02:00:35;16.30;99.90
13835;DHT22;6988;52.614;13.500;2022-07-23T02:05:28;16.30;99.90
13835;DHT22;6988;52.614;13.500;2022-07-23T02:10:21;16.30;99.90
13835;DHT22;6988;52.614;13.500;2022-07-23T02:15:13;16.30;99.90
13835;DHT22;6988;52.614;13.500;2022-07-23T02:20:06;16.30;99.90
13835;DHT22;6988;52.614;13.500;2022-07-23T02:25:01;16.30;99.90
13835;DHT22;6988;52.614;13.500;2022-07-23T02:29:53;16.40;99.90
13835;DHT22;6988;52.614;13.500;2022-07-23T02:34:45;16.30;99.90
13835;DHT22;6988;52.614;13.500;2022-07-23T02:39:36;16.40;99.90
13835;DHT22;6988;52.614;13.500;2022-07-23T02:44:30;16.30;99.90
13835;DHT22;6988;52.614;13.500;2022-07-23T02:49:23;16.30;99.90
13835;DHT22;6988;52.614;13.500;2022-07-23T02:54:15;16.30;99.90
13835;DHT22;6988;52.614;13.500;2022-07-23T02:59:07;16.30;99.90
13835;DHT22;6988;52.614;13.500;2022-07-23T03:04:00;16.30;99.90
13835;DHT22;6988;52.614;13.500;2022-07-23T03:08:52;16.20;99.90
13835;DHT22;6988;52.614;13.500;2022-07-23T03:13:44;16.20;99.90
13835;DHT22;6988;52.614;13.500;2022-07-23T03:18:36;16.20;99.90
13835;DHT22;6988;52.614;13.500;2022-07-23T03:23:29;16.10;99.90
13835;DHT22;6988;52.614;13.500;2022-07-23T03:28:21;16.00;99.90
13835;DHT22;6988;52.614;13.500;2022-07-23T03:33:14;16.00;99.90
13835;DHT22;6988;52.614;13.500;2022-07-23T03:38:07;16.00;99.90
13835;DHT22;6988;52.614;13.500;2022-07-23T03:43:00;16.00;99.90
13835;DHT22;6988;52.614;13.500;2022-07-23T03:47:52;16.00;99.90
13835;DHT22;6988;52.614;13.500;2022-07-23T03:52:44;16.10;99.90
13835;DHT22;6988;52.614;13.500;2022-07-23T03:57:37;16.10;99.90
13835;DHT22;6988;52.614;13.500;2022-07-23T04:02:30;16.00;99.90
13835;DHT22;6988;52.614;13.500;2022-07-23T04:07:22;16.00;99.90
13835;DHT22;6988;52.614;13.500;2022-07-23T04:12:14;16.00;99.90
13835;DHT22;6988;52.614;13.500;2022-07-23T04:17:06;16.00;99.90
13835;DHT22;6988;52.614;13.500;2022-07-23T04:21:59;16.10;99.90
13835;DHT22;6988;52.614;13.500;2022-07-23T04:26:52;16.10;99.90
13835;DHT22;6988;52.614;13.500;2022-07-23T04:31:44;16.10;99.90
13835;DHT22;6988;52.614;13.500;2022-07-23T04:36:36;16.10;99.90
13835;DHT22;6988;52.614;13.500;2022-07-23T04:41:29;16.10;99.90
13835;DHT22;6988;52.614;13.500;2022-07-23T04:46:21;16.10;99.90
13835;DHT22;6988;52.614;13.500;2022-07-23T04:51:15;16.10;99.90
13835;DHT22;6988;52.614;13.500;2022-07-23T04:56:07;16.20;99.90
13835;DHT22;6988;52.614;13.500;2022-07-23T05:01:01;16.20;99.90
13835;DHT22;6988;52.614;13.500;2022-07-23T05:05:55;16.10;99.90
13835;DHT22;6988;52.614;13.500;2022-07-23T05:10:47;16.00;99.90
13835;DHT22;6988;52.614;13.500;2022-07-23T05:15:39;15.90;99.90
13835;DHT22;6988;52.614;13.500;2022-07-23T05:20:32;15.90;99.90
13835;DHT22;6988;52.614;13.500;2022-07-23T05:25:24;15.90;99.90
13835;DHT22;6988;52.614;13.500;2022-07-23T05:30:16;15.80;99.90
13835;DHT22;6988;52.614;13.500;2022-07-23T05:35:11;15.70;99.90
13835;DHT22;6988;52.614;13.500;2022-07-23T05:40:10;15.70;99.90
13835;DHT22;6988;52.614;13.500;2022-07-23T05:45:04;15.70;99.90
13835;DHT22;6988;52.614;13.500;2022-07-23T05:49:59;15.80;99.90
13835;DHT22;6988;52.614;13.500;2022-07-23T05:54:58;15.90;99.90
13835;DHT22;6988;52.614;13.500;2022-07-23T05:59:51;15.90;99.90
13835;DHT22;6988;52.614;13.500;2022-07-23T06:04:43;15.90;99.90
13835;DHT22;6988;52.614;13.500;2022-07-23T06:09:45;15.90;99.90
13835;DHT22;6988;52.614;13.500;2022-07-23T06:14:39;15.90;99.90
13835;DHT22;6988;52.614;13.500;2022-07-23T06:19:33;15.80;99.90
13835;DHT22;6988;52.614;13.500;2022-07-23T06:24:24;15.80;99.90
13835;DHT22;6988;52.614;13.500;2022-07-23T06:29:18;15.80;99.90
13835;DHT22;6988;52.614;13.500;2022-07-23T06:34:09;15.90;99.90
13835;DHT22;6988;52.614;13.500;2022-07-23T06:39:02;15.90;99.90
13835;DHT22;6988;52.614;13.500;2022-07-23T06:43:54;15.90;99.90
13835;DHT22;6988;52.614;13.500;2022-07-23T06:48:46;16.00;99.90
13835;DHT22;6988;52.614;13.500;2022-07-23T06:53:38;16.00;99.90
13835;DHT22;6988;52.614;13.500;2022-07-23T06:58:31;16.00;99.90
13835;DHT22;6988;52.614;13.500;2022-07-23T07:03:23;16.00;99.90
13835;DHT22;6988;52.614;13.500;2022-07-23T07:08:15;16.10;99.90
13835;DHT22;6988;52.614;13.500;2022-07-23T07:13:07;16.20;99.90
13835;DHT22;6988;52.614;13.500;2022-07-23T07:18:00;16.30;99.90
13835;DHT22;6988;52.614;13.500;2022-07-23T07:22:52;16.30;99.90
13835;DHT22;6988;52.614;13.500;2022-07-23T07:27:44;16.20;99.90
13835;DHT22;6988;52.614;13.500;2022-07-23T07:32:36;16.30;99.90
13835;DHT22;6988;52.614;13.500;2022-07-23T07:37:29;16.40;99.90
13835;DHT22;6988;52.614;13.500;2022-07-23T07:42:21;16.50;99.90
13835;DHT22;6988;52.614;13.500;2022-07-23T07:47:13;16.60;99.90
13835;DHT22;6988;52.614;13.500;2022-07-23T07:52:05;16.80;99.90
13835;DHT22;6988;52.614;13.500;2022-07-23T07:56:58;16.80;99.90
13835;DHT22;6988;52.614;13.500;2022-07-23T08:01:50;17.10;99.90
13835;DHT22;6988;52.614;13.500;2022-07-23T08:06:42;17.10;99.90
13835;DHT22;6988;52.614;13.500;2022-07-23T08:11:34;17.40;99.90
13835;DHT22;6988;52.614;13.500;2022-07-23T08:16:27;17.70;99.90
13835;DHT22;6988;52.614;13.500;2022-07-23T08:21:19;18.30;99.90
13835;DHT22;6988;52.614;13.500;2022-07-23T08:26:11;18.80;99.90
13835;DHT22;6988;52.614;13.500;2022-07-23T08:31:03;19.60;99.90
13835;DHT22;6988;52.614;13.500;2022-07-23T08:42:28;21.20;99.90
13835;DHT22;6988;52.614;13.500;2022-07-23T08:47:20;21.70;99.90
13835;DHT22;6988;52.614;13.500;2022-07-23T08:52:12;22.00;99.90
13835;DHT22;6988;52.614;13.500;2022-07-23T08:57:05;22.00;99.90
13835;DHT22;6988;52.614;13.500;2022-07-23T09:01:58;22.10;99.90
13835;DHT22;6988;52.614;13.500;2022-07-23T09:06:51;22.40;99.90
13835;DHT22;6988;52.614;13.500;2022-07-23T09:11:45;22.80;99.90
13835;DHT22;6988;52.614;13.500;2022-07-23T09:16:37;22.90;99.90
13835;DHT22;6988;52.614;13.500;2022-07-23T09:21:32;23.10;99.90
13835;DHT22;6988;52.614;13.500;2022-07-23T09:26:27;23.20;99.90
13835;DHT22;6988;52.614;13.500;2022-07-23T09:31:22;23.60;99.90
13835;DHT22;6988;52.614;13.500;2022-07-23T09:36:15;23.50;99.90
13835;DHT22;6988;52.614;13.500;2022-07-23T09:41:09;23.80;99.90
13835;DHT22;6988;52.614;13.500;2022-07-23T09:46:19;24.00;99.90
13835;DHT22;6988;52.614;13.500;2022-07-23T09:51:13;23.80;99.90
13835;DHT22;6988;52.614;13.500;2022-07-23T09:56:08;24.20;99.90
13835;DHT22;6988;52.614;13.500;2022-07-23T10:01:01;24.20;99.90
13835;DHT22;6988;52.614;13.500;2022-07-23T10:05:53;24.60;99.90
13835;DHT22;6988;52.614;13.500;2022-07-23T10:11:04;25.20;99.90
13835;DHT22;6988;52.614;13.500;2022-07-23T10:16:18;25.10;99.90
13835;DHT22;6988;52.614;13.500;2022-07-23T10:21:10;25.00;99.90
13835;DHT22;6988;52.614;13.500;2022-07-23T10:26:10;24.80;99.90
13835;DHT22;6988;52.614;13.500;2022-07-23T10:31:17;24.10;99.90
13835;DHT22;6988;52.614;13.500;2022-07-23T10:36:24;23.90;99.90
13835;DHT22;6988;52.614;13.500;2022-07-23T10:41:34;23.90;99.90
13835;DHT22;6988;52.614;13.500;2022-07-23T10:46:28;23.90;99.90
13835;DHT22;6988;52.614;13.500;2022-07-23T10:51:23;24.10;99.90
13835;DHT22;6988;52.614;13.500;2022-07-23T11:02:21;24.90;99.90
13835;DHT22;6988;52.614;13.500;2022-07-23T11:07:14;24.90;99.90
13835;DHT22;6988;52.614;13.500;2022-07-23T11:12:34;25.00;99.90
13835;DHT22;6988;52.614;13.500;2022-07-23T11:17:28;25.40;99.90
13835;DHT22;6988;52.614;13.500;2022-07-23T11:22:34;25.30;99.90
13835;DHT22;6988;52.614;13.500;2022-07-23T11:27:36;25.40;99.90
13835;DHT22;6988;52.614;13.500;2022-07-23T11:32:32;26.10;99.90
13835;DHT22;6988;52.614;13.500;2022-07-23T11:37:33;26.80;99.90
13835;DHT22;6988;52.614;13.500;2022-07-23T11:42:26;26.30;99.90
13835;DHT22;6988;52.614;13.500;2022-07-23T11:47:22;25.40;99.90
13835;DHT22;6988;52.614;13.500;2022-07-23T11:52:16;24.90;99.90
13835;DHT22;6988;52.614;13.500;2022-07-23T11:57:09;25.00;99.90
13835;DHT22;6988;52.614;13.500;2022-07-23T12:02:03;25.70;99.90
13835;DHT22;6988;52.614;13.500;2022-07-23T12:06:56;26.40;99.90
13835;DHT22;6988;52.614;13.500;2022-07-23T12:11:59;26.00;99.90
13835;DHT22;6988;52.614;13.500;2022-07-23T12:17:07;25.80;99.90
13835;DHT22;6988;52.614;13.500;2022-07-23T12:21:59;25.60;99.90
13835;DHT22;6988;52.614;13.500;2022-07-23T12:27:10;25.80;99.90
13835;DHT22;6988;52.614;13.500;2022-07-23T12:32:17;25.70;99.90
13835;DHT22;6988;52.614;13.500;2022-07-23T12:37:27;25.40;99.90
13835;DHT22;6988;52.614;13.500;2022-07-23T12:42:21;25.40;99.90
13835;DHT22;6988;52.614;13.500;2022-07-23T12:47:14;25.60;99.90
13835;DHT22;6988;52.614;13.500;2022-07-23T12:52:15;25.60;99.90
13835;DHT22;6988;52.614;13.500;2022-07-23T12:57:07;25.50;99.90
13835;DHT22;6988;52.614;13.500;2022-07-23T13:02:00;25.10;99.90
13835;DHT22;6988;52.614;13.500;2022-07-23T13:06:54;24.90;99.90
13835;DHT22;6988;52.614;13.500;2022-07-23T13:11:49;24.70;99.90
13835;DHT22;6988;52.614;13.500;2022-07-23T13:16:44;24.80;99.90
13835;DHT22;6988;52.614;13.500;2022-07-23T13:21:37;24.60;99.90
13835;DHT22;6988;52.614;13.500;2022-07-23T13:26:30;24.60;99.90
13835;DHT22;6988;52.614;13.500;2022-07-23T13:31:21;24.50;99.90
13835;DHT22;6988;52.614;13.500;2022-07-23T13:36:13;24.90;99.90
13835;DHT22;6988;52.614;13.500;2022-07-23T13:41:06;25.00;99.90
13835;DHT22;6988;52.614;13.500;2022-07-23T13:45:59;25.60;99.90
13835;DHT22;6988;52.614;13.500;2022-07-23T13:50:51;26.20;99.90
13835;DHT22;6988;52.614;13.500;2022-07-23T13:55:44;26.50;99.90
13835;DHT22;6988;52.614;13.500;2022-07-23T14:00:40;26.00;99.90
13835;DHT22;6988;52.614;13.500;2022-07-23T14:05:33;25.70;99.90
13835;DHT22;6988;52.614;13.500;2022-07-23T14:10:25;25.90;99.90
13835;DHT22;6988;52.614;13.500;2022-07-23T14:15:17;26.30;99.90
13835;DHT22;6988;52.614;13.500;2022-07-23T14:20:11;26.40;99.90
13835;DHT22;6988;52.614;13.500;2022-07-23T14:25:06;25.90;99.90
13835;DHT22;6988;52.614;13.500;2022-07-23T14:30:00;25.80;99.90
13835;DHT22;6988;52.614;13.500;2022-07-23T14:34:53;25.60;99.90
13835;DHT22;6988;52.614;13.500;2022-07-23T14:39:46;25.60;99.90
13835;DHT22;6988;52.614;13.500;2022-07-23T14:44:38;25.80;99.90
13835;DHT22;6988;52.614;13.500;2022-07-23T14:49:31;26.00;99.90
13835;DHT22;6988;52.614;13.500;2022-07-23T14:54:23;25.80;99.90
13835;DHT22;6988;52.614;13.500;2022-07-23T14:59:17;26.20;99.90
13835;DHT22;6988;52.614;13.500;2022-07-23T15:04:09;26.70;99.90
13835;DHT22;6988;52.614;13.500;2022-07-23T15:09:01;26.60;99.90
13835;DHT22;6988;52.614;13.500;2022-07-23T15:13:53;26.20;99.90
13835;DHT22;6988;52.614;13.500;2022-07-23T15:18:47;26.00;99.90
13835;DHT22;6988;52.614;13.500;2022-07-23T15:23:38;25.90;99.20
13835;DHT22;6988;52.614;13.500;2022-07-23T15:28:30;25.90;99.90
13835;DHT22;6988;52.614;13.500;2022-07-23T15:33:22;26.10;99.60
13835;DHT22;6988;52.614;13.500;2022-07-23T15:38:15;26.10;99.90
13835;DHT22;6988;52.614;13.500;2022-07-23T15:43:07;25.90;99.90
13835;DHT22;6988;52.614;13.500;2022-07-23T15:47:59;25.80;99.90
13835;DHT22;6988;52.614;13.500;2022-07-23T15:52:51;25.70;99.90
13835;DHT22;6988;52.614;13.500;2022-07-23T15:57:44;25.70;99.90
13835;DHT22;6988;52.614;13.500;2022-07-23T16:02:36;25.60;99.90
13835;DHT22;6988;52.614;13.500;2022-07-23T16:07:28;25.60;99.90
13835;DHT22;6988;52.614;13.500;2022-07-23T16:12:20;25.30;99.90
13835;DHT22;6988;52.614;13.500;2022-07-23T16:17:13;25.20;99.90
13835;DHT22;6988;52.614;13.500;2022-07-23T16:22:04;25.20;99.90
13835;DHT22;6988;52.614;13.500;2022-07-23T16:26:56;25.30;99.90
13835;DHT22;6988;52.614;13.500;2022-07-23T16:31:48;25.20;99.90
13835;DHT22;6988;52.614;13.500;2022-07-23T16:36:41;25.20;99.90
13835;DHT22;6988;52.614;13.500;2022-07-23T16:41:33;25.10;99.90
13835;DHT22;6988;52.614;13.500;2022-07-23T16:46:24;24.90;99.90
13835;DHT22;6988;52.614;13.500;2022-07-23T16:51:18;24.60;99.90
13835;DHT22;6988;52.614;13.500;2022-07-23T16:56:11;24.20;99.90
13835;DHT22;6988;52.614;13.500;2022-07-23T17:01:03;23.90;99.90
13835;DHT22;6988;52.614;13.500;2022-07-23T17:05:55;23.70;99.90
13835;DHT22;6988;52.614;13.500;2022-07-23T17:10:47;23.80;99.90
13835;DHT22;6988;52.614;13.500;2022-07-23T17:15:40;23.90;99.90
13835;DHT22;6988;52.614;13.500;2022-07-23T17:20:32;23.80;99.90
13835;DHT22;6988;52.614;13.500;2022-07-23T17:25:24;23.80;99.90
13835;DHT22;6988;52.614;13.500;2022-07-23T17:30:16;23.60;99.90
13835;DHT22;6988;52.614;13.500;2022-07-23T17:35:11;23.40;99.90
13835;DHT22;6988;52.614;13.500;2022-07-23T17:40:03;23.30;99.90
13835;DHT22;6988;52.614;13.500;2022-07-23T17:44:56;23.10;99.90
13835;DHT22;6988;52.614;13.500;2022-07-23T17:49:47;23.00;99.90
13835;DHT22;6988;52.614;13.500;2022-07-23T17:54:40;23.00;99.90
13835;DHT22;6988;52.614;13.500;2022-07-23T17:59:33;22.70;99.90
13835;DHT22;6988;52.614;13.500;2022-07-23T18:04:27;22.80;99.90
13835;DHT22;6988;52.614;13.500;2022-07-23T18:09:18;22.50;99.90
13835;DHT22;6988;52.614;13.500;2022-07-23T18:14:11;22.40;99.90
13835;DHT22;6988;52.614;13.500;2022-07-23T18:19:04;22.20;99.90
13835;DHT22;6988;52.614;13.500;2022-07-23T18:23:57;22.10;99.90
13835;DHT22;6988;52.614;13.500;2022-07-23T18:28:48;22.00;99.90
13835;DHT22;6988;52.614;13.500;2022-07-23T18:33:42;21.80;99.90
13835;DHT22;6988;52.614;13.500;2022-07-23T18:38:34;21.70;99.90
13835;DHT22;6988;52.614;13.500;2022-07-23T18:43:26;21.60;99.90
13835;DHT22;6988;52.614;13.500;2022-07-23T18:48:18;21.40;99.90
13835;DHT22;6988;52.614;13.500;2022-07-23T18:53:12;21.30;99.90
13835;DHT22;6988;52.614;13.500;2022-07-23T18:58:04;21.20;99.90
13835;DHT22;6988;52.614;13.500;2022-07-23T19:02:57;21.00;99.90
13835;DHT22;6988;52.614;13.500;2022-07-23T19:07:49;20.80;99.90
13835;DHT22;6988;52.614;13.500;2022-07-23T19:12:42;20.70;99.90
13835;DHT22;6988;52.614;13.500;2022-07-23T19:17:35;20.60;99.90
13835;DHT22;6988;52.614;13.500;2022-07-23T19:22:27;20.50;99.90
13835;DHT22;6988;52.614;13.500;2022-07-23T19:27:19;20.40;99.90
13835;DHT22;6988;52.614;13.500;2022-07-23T19:32:12;20.20;99.90
13835;DHT22;6988;52.614;13.500;2022-07-23T19:37:04;20.00;99.90
13835;DHT22;6988;52.614;13.500;2022-07-23T19:42:04;19.90;99.90
13835;DHT22;6988;52.614;13.500;2022-07-23T19:46:56;19.80;99.90
13835;DHT22;6988;52.614;13.500;2022-07-23T19:51:49;19.80;99.90
13835;DHT22;6988;52.614;13.500;2022-07-23T19:56:41;19.60;99.90
13835;DHT22;6988;52.614;13.500;2022-07-23T20:01:33;19.50;99.90
13835;DHT22;6988;52.614;13.500;2022-07-23T20:06:25;19.40;99.90
13835;DHT22;6988;52.614;13.500;2022-07-23T20:11:18;19.30;99.90
13835;DHT22;6988;52.614;13.500;2022-07-23T20:16:10;19.20;99.90
13835;DHT22;6988;52.614;13.500;2022-07-23T20:21:02;19.10;99.90
13835;DHT22;6988;52.614;13.500;2022-07-23T20:25:54;19.00;99.90
13835;DHT22;6988;52.614;13.500;2022-07-23T20:30:47;18.90;99.90
13835;DHT22;6988;52.614;13.500;2022-07-23T20:35:40;18.80;99.90
13835;DHT22;6988;52.614;13.500;2022-07-23T20:40:32;18.70;99.90
13835;DHT22;6988;52.614;13.500;2022-07-23T20:45:24;18.70;99.90
13835;DHT22;6988;52.614;13.500;2022-07-23T20:50:17;18.60;99.90
13835;DHT22;6988;52.614;13.500;2022-07-23T20:55:09;18.40;99.90
13835;DHT22;6988;52.614;13.500;2022-07-23T21:00:00;18.30;99.90
13835;DHT22;6988;52.614;13.500;2022-07-23T21:04:52;18.20;99.90
13835;DHT22;6988;52.614;13.500;2022-07-23T21:09:47;18.10;99.90
13835;DHT22;6988;52.614;13.500;2022-07-23T21:14:39;18.10;99.90
13835;DHT22;6988;52.614;13.500;2022-07-23T21:19:31;18.00;99.90
13835;DHT22;6988;52.614;13.500;2022-07-23T21:24:22;17.90;99.90
13835;DHT22;6988;52.614;13.500;2022-07-23T21:29:15;17.80;99.90
13835;DHT22;6988;52.614;13.500;2022-07-23T21:34:07;17.70;99.90
13835;DHT22;6988;52.614;13.500;2022-07-23T21:38:59;17.50;99.90
13835;DHT22;6988;52.614;13.500;2022-07-23T21:43:50;17.40;99.90
13835;DHT22;6988;52.614;13.500;2022-07-23T21:48:43;17.40;99.90
13835;DHT22;6988;52.614;13.500;2022-07-23T21:53:35;17.30;99.90
13835;DHT22;6988;52.614;13.500;2022-07-23T21:58:27;17.20;99.90
13835;DHT22;6988;52.614;13.500;2022-07-23T22:03:18;17.20;99.90
13835;DHT22;6988;52.614;13.500;2022-07-23T22:08:11;17.20;99.90
13835;DHT22;6988;52.614;13.500;2022-07-23T22:13:03;17.10;99.90
13835;DHT22;6988;52.614;13.500;2022-07-23T22:17:55;17.00;99.90
13835;DHT22;6988;52.614;13.500;2022-07-23T22:22:48;16.90;99.90
13835;DHT22;6988;52.614;13.500;2022-07-23T22:27:43;16.80;99.90
13835;DHT22;6988;52.614;13.500;2022-07-23T22:32:36;16.80;99.90
13835;DHT22;6988;52.614;13.500;2022-07-23T22:37:28;16.70;99.90
13835;DHT22;6988;52.614;13.500;2022-07-23T22:42:19;16.60;99.90
13835;DHT22;6988;52.614;13.500;2022-07-23T22:47:12;16.50;99.90
13835;DHT22;6988;52.614;13.500;2022-07-23T22:52:05;16.40;99.90
13835;DHT22;6988;52.614;13.500;2022-07-23T22:56:57;16.30;99.90
13835;DHT22;6988;52.614;13.500;2022-07-23T23:01:49;16.20;99.90
13835;DHT22;6988;52.614;13.500;2022-07-23T23:06:42;16.10;99.90
13835;DHT22;6988;52.614;13.500;2022-07-23T23:11:33;16.00;99.90
13835;DHT22;6988;52.614;13.500;2022-07-23T23:16:25;15.90;99.90
13835;DHT22;6988;52.614;13.500;2022-07-23T23:21:18;15.80;99.90
13835;DHT22;6988;52.614;13.500;2022-07-23T23:26:11;15.90;99.90
13835;DHT22;6988;52.614;13.500;2022-07-23T23:31:03;15.80;99.90
13835;DHT22;6988;52.614;13.500;2022-07-23T23:35:54;15.80;99.90
13835;DHT22;6988;52.614;13.500;2022-07-23T23:40:46;15.70;99.90
13835;DHT22;6988;52.614;13.500;2022-07-23T23:45:39;15.70;99.90
13835;DHT22;6988;52.614;13.500;2022-07-23T23:50:31;15.60;99.90
13835;DHT22;6988;52.614;13.500;2022-07-23T23:55:23;15.50;99.90
